sensor_id;sensor_type;location;lat;lon;timestamp;P1;durP1;ratioP1;P2;durP2;ratioP2
45548;SDS011;31270;48.328;10.096;2023-06-26T00:00:47;15.98;;;10.02;;
45548;SDS011;31270;48.328;10.096;2023-06-26T00:03:13;14.13;;;10.23;;
45548;SDS011;31270;48.328;10.096;2023-06-26T00:05:40;13.02;;;9.65;;
45548;SDS011;31270;48.328;10.096;2023-06-26T00:08:06;16.27;;;9.65;;
45548;SDS011;31270;48.328;10.096;2023-06-26T00:10:32;13.57;;;10.07;;
45548;SDS011;31270;48.328;10.096;2023-06-26T00:12:58;13.60;;;10.40;;
45548;SDS011;31270;48.328;10.096;2023-06-26T00:15:24;14.82;;;9.85;;
45548;SDS011;31270;48.328;10.096;2023-06-26T00:17:50;14.57;;;10.23;;
45548;SDS011;31270;48.328;10.096;2023-06-26T00:20:16;13.15;;;9.98;;
45548;SDS011;31270;48.328;10.096;2023-06-26T00:22:41;12.57;;;9.63;;
45548;SDS011;31270;48.328;10.096;2023-06-26T00:25:07;13.77;;;10.73;;
45548;SDS011;31270;48.328;10.096;2023-06-26T00:27:33;14.10;;;10.30;;
45548;SDS011;31270;48.328;10.096;2023-06-26T00:29:58;15.38;;;10.10;;
45548;SDS011;31270;48.328;10.096;2023-06-26T00:32:24;12.10;;;9.85;;
45548;SDS011;31270;48.328;10.096;2023-06-26T00:34:50;13.57;;;10.30;;
45548;SDS011;31270;48.328;10.096;2023-06-26T00:37:15;14.75;;;10.25;;
45548;SDS011;31270;48.328;10.096;2023-06-26T00:39:41;17.65;;;10.95;;
45548;SDS011;31270;48.328;10.096;2023-06-26T00:42:06;13.38;;;10.30;;
45548;SDS011;31270;48.328;10.096;2023-06-26T00:44:32;12.35;;;10.02;;
45548;SDS011;31270;48.328;10.096;2023-06-26T00:46:58;15.10;;;10.45;;
45548;SDS011;31270;48.328;10.096;2023-06-26T00:49:24;13.88;;;10.65;;
45548;SDS011;31270;48.328;10.096;2023-06-26T00:51:51;13.05;;;10.32;;
45548;SDS011;31270;48.328;10.096;2023-06-26T00:54:16;13.70;;;9.73;;
45548;SDS011;31270;48.328;10.096;2023-06-26T00:56:45;13.70;;;10.52;;
45548;SDS011;31270;48.328;10.096;2023-06-26T00:59:12;14.02;;;10.65;;
45548;SDS011;31270;48.328;10.096;2023-06-26T01:01:38;17.08;;;11.13;;
45548;SDS011;31270;48.328;10.096;2023-06-26T01:04:04;14.55;;;11.32;;
45548;SDS011;31270;48.328;10.096;2023-06-26T01:06:30;13.95;;;11.20;;
45548;SDS011;31270;48.328;10.096;2023-06-26T01:09:00;15.57;;;10.73;;
45548;SDS011;31270;48.328;10.096;2023-06-26T01:11:26;14.43;;;11.05;;
45548;SDS011;31270;48.328;10.096;2023-06-26T01:13:52;15.48;;;11.07;;
45548;SDS011;31270;48.328;10.096;2023-06-26T01:16:20;17.80;;;11.48;;
45548;SDS011;31270;48.328;10.096;2023-06-26T01:18:47;16.55;;;11.73;;
45548;SDS011;31270;48.328;10.096;2023-06-26T01:21:13;15.93;;;11.35;;
45548;SDS011;31270;48.328;10.096;2023-06-26T01:26:20;15.73;;;12.05;;
45548;SDS011;31270;48.328;10.096;2023-06-26T01:28:48;14.73;;;10.63;;
45548;SDS011;31270;48.328;10.096;2023-06-26T01:31:16;15.55;;;11.60;;
45548;SDS011;31270;48.328;10.096;2023-06-26T01:33:43;17.17;;;11.02;;
45548;SDS011;31270;48.328;10.096;2023-06-26T01:36:10;15.93;;;11.63;;
45548;SDS011;31270;48.328;10.096;2023-06-26T01:38:36;17.08;;;12.07;;
45548;SDS011;31270;48.328;10.096;2023-06-26T01:41:02;17.55;;;12.02;;
45548;SDS011;31270;48.328;10.096;2023-06-26T01:43:36;15.32;;;11.65;;
45548;SDS011;31270;48.328;10.096;2023-06-26T01:46:37;15.63;;;11.65;;
45548;SDS011;31270;48.328;10.096;2023-06-26T01:52:33;15.63;;;11.25;;
45548;SDS011;31270;48.328;10.096;2023-06-26T01:57:25;17.00;;;11.77;;
45548;SDS011;31270;48.328;10.096;2023-06-26T01:59:53;14.32;;;10.95;;
45548;SDS011;31270;48.328;10.096;2023-06-26T02:02:20;16.50;;;11.75;;
45548;SDS011;31270;48.328;10.096;2023-06-26T02:04:49;17.67;;;11.85;;
45548;SDS011;31270;48.328;10.096;2023-06-26T02:07:14;14.20;;;10.45;;
45548;SDS011;31270;48.328;10.096;2023-06-26T02:09:40;14.50;;;11.27;;
45548;SDS011;31270;48.328;10.096;2023-06-26T02:12:05;15.23;;;11.30;;
45548;SDS011;31270;48.328;10.096;2023-06-26T02:14:31;15.35;;;11.40;;
45548;SDS011;31270;48.328;10.096;2023-06-26T02:16:58;16.20;;;11.85;;
45548;SDS011;31270;48.328;10.096;2023-06-26T02:19:25;18.33;;;12.15;;
45548;SDS011;31270;48.328;10.096;2023-06-26T02:21:52;17.27;;;12.55;;
45548;SDS011;31270;48.328;10.096;2023-06-26T02:24:21;15.80;;;11.65;;
45548;SDS011;31270;48.328;10.096;2023-06-26T02:26:46;16.77;;;12.50;;
45548;SDS011;31270;48.328;10.096;2023-06-26T02:29:14;17.88;;;13.35;;
45548;SDS011;31270;48.328;10.096;2023-06-26T02:31:40;14.73;;;11.70;;
45548;SDS011;31270;48.328;10.096;2023-06-26T02:34:06;16.05;;;11.68;;
45548;SDS011;31270;48.328;10.096;2023-06-26T02:36:31;15.65;;;11.75;;
45548;SDS011;31270;48.328;10.096;2023-06-26T02:38:57;15.85;;;11.80;;
45548;SDS011;31270;48.328;10.096;2023-06-26T02:41:23;15.50;;;12.05;;
45548;SDS011;31270;48.328;10.096;2023-06-26T02:43:48;16.92;;;11.95;;
45548;SDS011;31270;48.328;10.096;2023-06-26T02:46:14;18.23;;;12.20;;
45548;SDS011;31270;48.328;10.096;2023-06-26T02:48:39;15.32;;;11.52;;
45548;SDS011;31270;48.328;10.096;2023-06-26T02:51:05;14.48;;;11.30;;
45548;SDS011;31270;48.328;10.096;2023-06-26T02:53:32;17.10;;;12.25;;
45548;SDS011;31270;48.328;10.096;2023-06-26T02:55:58;15.75;;;11.82;;
45548;SDS011;31270;48.328;10.096;2023-06-26T02:58:24;15.43;;;12.35;;
45548;SDS011;31270;48.328;10.096;2023-06-26T03:00:50;18.20;;;12.70;;
45548;SDS011;31270;48.328;10.096;2023-06-26T03:03:16;17.13;;;12.23;;
45548;SDS011;31270;48.328;10.096;2023-06-26T03:05:41;16.25;;;12.60;;
45548;SDS011;31270;48.328;10.096;2023-06-26T03:08:07;17.25;;;11.90;;
45548;SDS011;31270;48.328;10.096;2023-06-26T03:10:33;17.73;;;12.13;;
45548;SDS011;31270;48.328;10.096;2023-06-26T03:12:58;16.33;;;12.48;;
45548;SDS011;31270;48.328;10.096;2023-06-26T03:15:24;14.68;;;11.18;;
45548;SDS011;31270;48.328;10.096;2023-06-26T03:17:50;18.77;;;12.52;;
45548;SDS011;31270;48.328;10.096;2023-06-26T03:20:16;17.63;;;12.43;;
45548;SDS011;31270;48.328;10.096;2023-06-26T03:22:41;16.48;;;12.05;;
45548;SDS011;31270;48.328;10.096;2023-06-26T03:25:07;18.80;;;12.50;;
45548;SDS011;31270;48.328;10.096;2023-06-26T03:27:33;18.30;;;13.45;;
45548;SDS011;31270;48.328;10.096;2023-06-26T03:29:59;18.42;;;13.00;;
45548;SDS011;31270;48.328;10.096;2023-06-26T03:32:25;17.60;;;12.95;;
45548;SDS011;31270;48.328;10.096;2023-06-26T03:34:50;16.88;;;11.90;;
45548;SDS011;31270;48.328;10.096;2023-06-26T03:37:18;19.90;;;12.48;;
45548;SDS011;31270;48.328;10.096;2023-06-26T03:39:43;26.45;;;12.98;;
45548;SDS011;31270;48.328;10.096;2023-06-26T03:42:09;20.92;;;12.50;;
45548;SDS011;31270;48.328;10.096;2023-06-26T03:44:35;19.33;;;12.57;;
45548;SDS011;31270;48.328;10.096;2023-06-26T03:47:00;17.05;;;12.60;;
45548;SDS011;31270;48.328;10.096;2023-06-26T03:49:26;16.25;;;12.10;;
45548;SDS011;31270;48.328;10.096;2023-06-26T03:51:52;25.25;;;12.77;;
45548;SDS011;31270;48.328;10.096;2023-06-26T03:54:18;29.23;;;12.20;;
45548;SDS011;31270;48.328;10.096;2023-06-26T03:56:43;21.83;;;12.85;;
45548;SDS011;31270;48.328;10.096;2023-06-26T03:59:09;19.25;;;13.32;;
45548;SDS011;31270;48.328;10.096;2023-06-26T04:01:35;17.35;;;12.55;;
45548;SDS011;31270;48.328;10.096;2023-06-26T04:04:02;18.05;;;12.60;;
45548;SDS011;31270;48.328;10.096;2023-06-26T04:06:28;19.65;;;12.80;;
45548;SDS011;31270;48.328;10.096;2023-06-26T04:08:56;17.48;;;12.88;;
45548;SDS011;31270;48.328;10.096;2023-06-26T04:11:22;18.35;;;12.23;;
45548;SDS011;31270;48.328;10.096;2023-06-26T04:13:47;20.48;;;12.73;;
45548;SDS011;31270;48.328;10.096;2023-06-26T04:16:13;18.05;;;12.32;;
45548;SDS011;31270;48.328;10.096;2023-06-26T04:18:40;20.10;;;12.60;;
45548;SDS011;31270;48.328;10.096;2023-06-26T04:21:10;16.25;;;12.55;;
45548;SDS011;31270;48.328;10.096;2023-06-26T04:23:37;17.13;;;12.85;;
45548;SDS011;31270;48.328;10.096;2023-06-26T04:26:04;15.23;;;11.32;;
45548;SDS011;31270;48.328;10.096;2023-06-26T04:28:31;16.65;;;12.73;;
45548;SDS011;31270;48.328;10.096;2023-06-26T04:31:00;17.48;;;12.00;;
45548;SDS011;31270;48.328;10.096;2023-06-26T04:33:35;16.80;;;12.95;;
45548;SDS011;31270;48.328;10.096;2023-06-26T04:36:02;18.05;;;12.52;;
45548;SDS011;31270;48.328;10.096;2023-06-26T04:38:32;16.65;;;12.45;;
45548;SDS011;31270;48.328;10.096;2023-06-26T04:40:58;17.85;;;12.15;;
45548;SDS011;31270;48.328;10.096;2023-06-26T04:43:24;16.67;;;12.27;;
45548;SDS011;31270;48.328;10.096;2023-06-26T04:45:50;18.65;;;12.38;;
45548;SDS011;31270;48.328;10.096;2023-06-26T04:48:16;17.65;;;11.75;;
45548;SDS011;31270;48.328;10.096;2023-06-26T04:50:42;15.88;;;11.68;;
45548;SDS011;31270;48.328;10.096;2023-06-26T04:53:07;17.13;;;12.65;;
45548;SDS011;31270;48.328;10.096;2023-06-26T04:55:33;18.27;;;12.43;;
45548;SDS011;31270;48.328;10.096;2023-06-26T04:57:59;15.70;;;11.75;;
45548;SDS011;31270;48.328;10.096;2023-06-26T05:00:25;18.23;;;12.27;;
45548;SDS011;31270;48.328;10.096;2023-06-26T05:02:51;18.15;;;12.07;;
45548;SDS011;31270;48.328;10.096;2023-06-26T05:05:25;15.85;;;11.80;;
45548;SDS011;31270;48.328;10.096;2023-06-26T05:07:52;15.90;;;11.90;;
45548;SDS011;31270;48.328;10.096;2023-06-26T05:10:19;14.30;;;11.55;;
45548;SDS011;31270;48.328;10.096;2023-06-26T05:12:44;15.90;;;11.60;;
45548;SDS011;31270;48.328;10.096;2023-06-26T05:15:10;15.02;;;11.80;;
45548;SDS011;31270;48.328;10.096;2023-06-26T05:17:36;18.40;;;12.45;;
45548;SDS011;31270;48.328;10.096;2023-06-26T05:20:03;16.67;;;12.18;;
45548;SDS011;31270;48.328;10.096;2023-06-26T05:22:30;15.85;;;11.88;;
45548;SDS011;31270;48.328;10.096;2023-06-26T05:25:00;16.50;;;11.68;;
45548;SDS011;31270;48.328;10.096;2023-06-26T05:27:27;15.65;;;11.15;;
45548;SDS011;31270;48.328;10.096;2023-06-26T05:29:53;15.85;;;12.35;;
45548;SDS011;31270;48.328;10.096;2023-06-26T05:32:19;15.75;;;12.10;;
45548;SDS011;31270;48.328;10.096;2023-06-26T05:34:48;16.05;;;11.48;;
45548;SDS011;31270;48.328;10.096;2023-06-26T05:37:18;17.08;;;11.40;;
45548;SDS011;31270;48.328;10.096;2023-06-26T05:39:46;15.63;;;11.25;;
45548;SDS011;31270;48.328;10.096;2023-06-26T05:42:13;18.95;;;11.23;;
45548;SDS011;31270;48.328;10.096;2023-06-26T05:44:39;15.13;;;11.38;;
45548;SDS011;31270;48.328;10.096;2023-06-26T05:47:05;16.90;;;11.00;;
45548;SDS011;31270;48.328;10.096;2023-06-26T05:49:30;13.93;;;10.88;;
45548;SDS011;31270;48.328;10.096;2023-06-26T05:51:56;14.82;;;10.70;;
45548;SDS011;31270;48.328;10.096;2023-06-26T05:54:23;15.90;;;10.77;;
45548;SDS011;31270;48.328;10.096;2023-06-26T05:56:50;15.57;;;9.88;;
45548;SDS011;31270;48.328;10.096;2023-06-26T05:59:22;15.52;;;10.27;;
45548;SDS011;31270;48.328;10.096;2023-06-26T06:01:47;14.40;;;9.85;;
45548;SDS011;31270;48.328;10.096;2023-06-26T06:04:13;13.73;;;9.77;;
45548;SDS011;31270;48.328;10.096;2023-06-26T06:06:39;14.52;;;9.07;;
45548;SDS011;31270;48.328;10.096;2023-06-26T06:09:04;12.15;;;9.68;;
45548;SDS011;31270;48.328;10.096;2023-06-26T06:11:30;15.73;;;9.65;;
45548;SDS011;31270;48.328;10.096;2023-06-26T06:13:55;16.15;;;9.32;;
45548;SDS011;31270;48.328;10.096;2023-06-26T06:16:23;12.70;;;9.23;;
45548;SDS011;31270;48.328;10.096;2023-06-26T06:18:49;14.05;;;9.25;;
45548;SDS011;31270;48.328;10.096;2023-06-26T06:21:15;10.82;;;9.13;;
45548;SDS011;31270;48.328;10.096;2023-06-26T06:23:40;13.32;;;9.10;;
45548;SDS011;31270;48.328;10.096;2023-06-26T06:26:06;12.73;;;9.38;;
45548;SDS011;31270;48.328;10.096;2023-06-26T06:28:31;12.45;;;8.32;;
45548;SDS011;31270;48.328;10.096;2023-06-26T06:30:57;15.48;;;8.90;;
45548;SDS011;31270;48.328;10.096;2023-06-26T06:33:22;13.60;;;8.70;;
45548;SDS011;31270;48.328;10.096;2023-06-26T06:35:48;15.38;;;8.77;;
45548;SDS011;31270;48.328;10.096;2023-06-26T06:38:13;15.95;;;9.52;;
45548;SDS011;31270;48.328;10.096;2023-06-26T06:40:39;11.93;;;8.18;;
45548;SDS011;31270;48.328;10.096;2023-06-26T06:43:05;11.73;;;8.18;;
45548;SDS011;31270;48.328;10.096;2023-06-26T06:45:31;11.85;;;9.02;;
45548;SDS011;31270;48.328;10.096;2023-06-26T06:47:56;11.35;;;8.07;;
45548;SDS011;31270;48.328;10.096;2023-06-26T06:50:22;11.90;;;8.60;;
45548;SDS011;31270;48.328;10.096;2023-06-26T06:52:47;11.27;;;8.43;;
45548;SDS011;31270;48.328;10.096;2023-06-26T06:55:13;10.15;;;8.07;;
45548;SDS011;31270;48.328;10.096;2023-06-26T06:57:39;10.30;;;8.43;;
45548;SDS011;31270;48.328;10.096;2023-06-26T07:00:09;13.40;;;8.57;;
45548;SDS011;31270;48.328;10.096;2023-06-26T07:02:36;13.23;;;8.27;;
45548;SDS011;31270;48.328;10.096;2023-06-26T07:05:07;11.02;;;8.15;;
45548;SDS011;31270;48.328;10.096;2023-06-26T07:07:34;10.02;;;7.90;;
45548;SDS011;31270;48.328;10.096;2023-06-26T07:10:02;9.82;;;7.95;;
45548;SDS011;31270;48.328;10.096;2023-06-26T07:12:33;10.68;;;8.32;;
45548;SDS011;31270;48.328;10.096;2023-06-26T07:15:00;13.82;;;8.50;;
45548;SDS011;31270;48.328;10.096;2023-06-26T07:17:27;10.35;;;7.82;;
45548;SDS011;31270;48.328;10.096;2023-06-26T07:19:53;9.82;;;7.97;;
45548;SDS011;31270;48.328;10.096;2023-06-26T07:22:19;9.15;;;7.82;;
45548;SDS011;31270;48.328;10.096;2023-06-26T07:24:51;8.85;;;7.30;;
45548;SDS011;31270;48.328;10.096;2023-06-26T07:27:17;10.55;;;7.70;;
45548;SDS011;31270;48.328;10.096;2023-06-26T07:29:44;11.43;;;7.70;;
45548;SDS011;31270;48.328;10.096;2023-06-26T07:32:09;9.27;;;7.25;;
45548;SDS011;31270;48.328;10.096;2023-06-26T07:34:35;11.32;;;7.32;;
45548;SDS011;31270;48.328;10.096;2023-06-26T07:37:01;10.23;;;7.60;;
45548;SDS011;31270;48.328;10.096;2023-06-26T07:39:27;10.57;;;7.50;;
45548;SDS011;31270;48.328;10.096;2023-06-26T07:41:52;11.18;;;7.13;;
45548;SDS011;31270;48.328;10.096;2023-06-26T07:44:18;9.55;;;7.35;;
45548;SDS011;31270;48.328;10.096;2023-06-26T07:46:44;8.80;;;7.13;;
45548;SDS011;31270;48.328;10.096;2023-06-26T07:49:10;8.45;;;7.32;;
45548;SDS011;31270;48.328;10.096;2023-06-26T07:51:36;8.60;;;7.45;;
45548;SDS011;31270;48.328;10.096;2023-06-26T07:54:01;9.82;;;7.82;;
45548;SDS011;31270;48.328;10.096;2023-06-26T07:56:27;8.18;;;6.97;;
45548;SDS011;31270;48.328;10.096;2023-06-26T07:58:53;10.68;;;7.68;;
45548;SDS011;31270;48.328;10.096;2023-06-26T08:01:18;8.65;;;7.75;;
45548;SDS011;31270;48.328;10.096;2023-06-26T08:03:44;8.30;;;7.32;;
45548;SDS011;31270;48.328;10.096;2023-06-26T08:06:10;10.57;;;6.85;;
45548;SDS011;31270;48.328;10.096;2023-06-26T08:08:35;8.32;;;6.97;;
45548;SDS011;31270;48.328;10.096;2023-06-26T08:11:01;9.25;;;7.00;;
45548;SDS011;31270;48.328;10.096;2023-06-26T08:13:27;8.95;;;7.15;;
45548;SDS011;31270;48.328;10.096;2023-06-26T08:15:53;8.45;;;7.03;;
45548;SDS011;31270;48.328;10.096;2023-06-26T08:18:18;7.82;;;6.53;;
45548;SDS011;31270;48.328;10.096;2023-06-26T08:20:44;7.68;;;6.82;;
45548;SDS011;31270;48.328;10.096;2023-06-26T08:23:09;10.27;;;6.82;;
45548;SDS011;31270;48.328;10.096;2023-06-26T08:25:35;9.23;;;7.38;;
45548;SDS011;31270;48.328;10.096;2023-06-26T08:28:01;9.77;;;6.60;;
45548;SDS011;31270;48.328;10.096;2023-06-26T08:30:26;9.15;;;7.03;;
45548;SDS011;31270;48.328;10.096;2023-06-26T08:32:56;6.97;;;6.28;;
45548;SDS011;31270;48.328;10.096;2023-06-26T08:35:21;8.43;;;6.80;;
45548;SDS011;31270;48.328;10.096;2023-06-26T08:37:47;8.18;;;7.05;;
45548;SDS011;31270;48.328;10.096;2023-06-26T08:40:14;7.30;;;6.38;;
45548;SDS011;31270;48.328;10.096;2023-06-26T08:42:43;8.10;;;6.65;;
45548;SDS011;31270;48.328;10.096;2023-06-26T08:45:09;7.85;;;7.05;;
45548;SDS011;31270;48.328;10.096;2023-06-26T08:47:35;9.13;;;7.28;;
45548;SDS011;31270;48.328;10.096;2023-06-26T08:50:10;7.63;;;6.82;;
45548;SDS011;31270;48.328;10.096;2023-06-26T08:52:40;7.00;;;6.30;;
45548;SDS011;31270;48.328;10.096;2023-06-26T08:55:12;9.88;;;6.13;;
45548;SDS011;31270;48.328;10.096;2023-06-26T08:57:40;7.25;;;5.68;;
45548;SDS011;31270;48.328;10.096;2023-06-26T09:00:06;7.35;;;5.95;;
45548;SDS011;31270;48.328;10.096;2023-06-26T09:02:33;8.30;;;6.40;;
45548;SDS011;31270;48.328;10.096;2023-06-26T09:05:03;7.03;;;6.32;;
45548;SDS011;31270;48.328;10.096;2023-06-26T09:07:29;6.95;;;6.28;;
45548;SDS011;31270;48.328;10.096;2023-06-26T09:09:54;6.97;;;6.38;;
45548;SDS011;31270;48.328;10.096;2023-06-26T09:12:20;6.22;;;5.63;;
45548;SDS011;31270;48.328;10.096;2023-06-26T09:14:46;6.18;;;5.57;;
45548;SDS011;31270;48.328;10.096;2023-06-26T09:17:15;7.07;;;6.38;;
45548;SDS011;31270;48.328;10.096;2023-06-26T09:19:40;6.72;;;6.13;;
45548;SDS011;31270;48.328;10.096;2023-06-26T09:22:11;7.88;;;6.15;;
45548;SDS011;31270;48.328;10.096;2023-06-26T09:24:38;7.40;;;5.70;;
45548;SDS011;31270;48.328;10.096;2023-06-26T09:27:06;6.63;;;5.97;;
45548;SDS011;31270;48.328;10.096;2023-06-26T09:29:32;7.38;;;5.97;;
45548;SDS011;31270;48.328;10.096;2023-06-26T09:31:59;6.55;;;5.95;;
45548;SDS011;31270;48.328;10.096;2023-06-26T09:34:31;6.05;;;5.45;;
45548;SDS011;31270;48.328;10.096;2023-06-26T09:36:58;6.40;;;5.80;;
45548;SDS011;31270;48.328;10.096;2023-06-26T09:39:24;5.82;;;5.25;;
45548;SDS011;31270;48.328;10.096;2023-06-26T09:41:50;6.85;;;6.15;;
45548;SDS011;31270;48.328;10.096;2023-06-26T09:44:16;7.43;;;6.20;;
45548;SDS011;31270;48.328;10.096;2023-06-26T09:46:44;6.35;;;5.70;;
45548;SDS011;31270;48.328;10.096;2023-06-26T09:49:11;6.35;;;5.68;;
45548;SDS011;31270;48.328;10.096;2023-06-26T09:51:38;6.40;;;5.80;;
45548;SDS011;31270;48.328;10.096;2023-06-26T09:54:07;7.25;;;5.57;;
45548;SDS011;31270;48.328;10.096;2023-06-26T09:56:33;6.75;;;5.68;;
45548;SDS011;31270;48.328;10.096;2023-06-26T09:59:00;9.43;;;5.20;;
45548;SDS011;31270;48.328;10.096;2023-06-26T10:01:28;6.47;;;5.82;;
45548;SDS011;31270;48.328;10.096;2023-06-26T10:03:55;6.22;;;5.60;;
45548;SDS011;31270;48.328;10.096;2023-06-26T10:06:41;6.50;;;5.90;;
45548;SDS011;31270;48.328;10.096;2023-06-26T10:09:16;7.20;;;5.95;;
45548;SDS011;31270;48.328;10.096;2023-06-26T10:12:03;7.03;;;6.38;;
45548;SDS011;31270;48.328;10.096;2023-06-26T10:14:37;6.38;;;5.53;;
45548;SDS011;31270;48.328;10.096;2023-06-26T10:17:06;5.80;;;5.22;;
45548;SDS011;31270;48.328;10.096;2023-06-26T10:19:41;6.25;;;5.65;;
45548;SDS011;31270;48.328;10.096;2023-06-26T10:22:09;6.53;;;5.72;;
45548;SDS011;31270;48.328;10.096;2023-06-26T10:24:39;5.95;;;5.38;;
45548;SDS011;31270;48.328;10.096;2023-06-26T10:27:11;7.05;;;5.53;;
45548;SDS011;31270;48.328;10.096;2023-06-26T10:29:42;5.70;;;5.20;;
45548;SDS011;31270;48.328;10.096;2023-06-26T10:32:14;5.78;;;5.22;;
45548;SDS011;31270;48.328;10.096;2023-06-26T10:34:41;5.90;;;5.30;;
45548;SDS011;31270;48.328;10.096;2023-06-26T10:37:08;6.38;;;5.78;;
45548;SDS011;31270;48.328;10.096;2023-06-26T10:39:49;6.05;;;5.07;;
45548;SDS011;31270;48.328;10.096;2023-06-26T10:42:19;6.47;;;5.57;;
45548;SDS011;31270;48.328;10.096;2023-06-26T10:44:53;10.43;;;5.82;;
45548;SDS011;31270;48.328;10.096;2023-06-26T10:47:28;6.07;;;5.43;;
45548;SDS011;31270;48.328;10.096;2023-06-26T10:49:55;5.68;;;5.18;;
45548;SDS011;31270;48.328;10.096;2023-06-26T10:52:21;5.43;;;4.93;;
45548;SDS011;31270;48.328;10.096;2023-06-26T10:54:46;8.45;;;4.65;;
45548;SDS011;31270;48.328;10.096;2023-06-26T10:57:12;5.43;;;4.93;;
45548;SDS011;31270;48.328;10.096;2023-06-26T11:00:07;5.72;;;5.22;;
45548;SDS011;31270;48.328;10.096;2023-06-26T11:02:52;5.30;;;4.80;;
45548;SDS011;31270;48.328;10.096;2023-06-26T11:05:28;6.18;;;5.35;;
45548;SDS011;31270;48.328;10.096;2023-06-26T11:08:04;5.47;;;4.97;;
45548;SDS011;31270;48.328;10.096;2023-06-26T11:13:26;6.85;;;4.93;;
45548;SDS011;31270;48.328;10.096;2023-06-26T11:15:52;7.15;;;5.15;;
45548;SDS011;31270;48.328;10.096;2023-06-26T11:18:21;7.40;;;4.82;;
45548;SDS011;31270;48.328;10.096;2023-06-26T11:20:47;7.15;;;5.50;;
45548;SDS011;31270;48.328;10.096;2023-06-26T11:23:13;6.88;;;5.00;;
45548;SDS011;31270;48.328;10.096;2023-06-26T11:25:45;5.82;;;5.15;;
45548;SDS011;31270;48.328;10.096;2023-06-26T11:28:10;6.47;;;5.00;;
45548;SDS011;31270;48.328;10.096;2023-06-26T11:30:36;5.85;;;5.35;;
45548;SDS011;31270;48.328;10.096;2023-06-26T11:33:05;7.20;;;5.20;;
45548;SDS011;31270;48.328;10.096;2023-06-26T11:35:35;6.50;;;5.68;;
45548;SDS011;31270;48.328;10.096;2023-06-26T11:38:02;7.63;;;4.93;;
45548;SDS011;31270;48.328;10.096;2023-06-26T11:40:34;5.53;;;5.03;;
45548;SDS011;31270;48.328;10.096;2023-06-26T11:43:01;6.25;;;5.63;;
45548;SDS011;31270;48.328;10.096;2023-06-26T11:45:30;9.20;;;5.72;;
45548;SDS011;31270;48.328;10.096;2023-06-26T11:47:57;6.28;;;5.68;;
45548;SDS011;31270;48.328;10.096;2023-06-26T11:50:24;10.27;;;5.88;;
45548;SDS011;31270;48.328;10.096;2023-06-26T11:52:56;6.00;;;5.40;;
45548;SDS011;31270;48.328;10.096;2023-06-26T11:55:23;5.53;;;5.03;;
45548;SDS011;31270;48.328;10.096;2023-06-26T11:57:52;8.05;;;5.55;;
45548;SDS011;31270;48.328;10.096;2023-06-26T12:00:19;5.65;;;5.15;;
45548;SDS011;31270;48.328;10.096;2023-06-26T12:02:45;7.18;;;5.10;;
45548;SDS011;31270;48.328;10.096;2023-06-26T12:05:17;6.25;;;5.65;;
45548;SDS011;31270;48.328;10.096;2023-06-26T12:07:44;6.00;;;5.18;;
45548;SDS011;31270;48.328;10.096;2023-06-26T12:10:14;5.78;;;5.28;;
45548;SDS011;31270;48.328;10.096;2023-06-26T12:12:40;6.18;;;5.57;;
45548;SDS011;31270;48.328;10.096;2023-06-26T12:15:07;6.18;;;5.55;;
45548;SDS011;31270;48.328;10.096;2023-06-26T12:17:36;5.85;;;5.35;;
45548;SDS011;31270;48.328;10.096;2023-06-26T12:20:03;5.82;;;5.32;;
45548;SDS011;31270;48.328;10.096;2023-06-26T12:22:34;5.70;;;5.20;;
45548;SDS011;31270;48.328;10.096;2023-06-26T12:25:00;6.47;;;5.28;;
45548;SDS011;31270;48.328;10.096;2023-06-26T12:27:26;6.20;;;5.63;;
45548;SDS011;31270;48.328;10.096;2023-06-26T12:29:53;6.40;;;5.55;;
45548;SDS011;31270;48.328;10.096;2023-06-26T12:32:19;7.32;;;5.70;;
45548;SDS011;31270;48.328;10.096;2023-06-26T12:34:48;9.23;;;5.63;;
45548;SDS011;31270;48.328;10.096;2023-06-26T12:37:20;7.85;;;5.57;;
45548;SDS011;31270;48.328;10.096;2023-06-26T12:42:21;6.97;;;6.15;;
45548;SDS011;31270;48.328;10.096;2023-06-26T12:44:48;6.78;;;6.15;;
45548;SDS011;31270;48.328;10.096;2023-06-26T12:47:15;6.97;;;5.90;;
45548;SDS011;31270;48.328;10.096;2023-06-26T12:49:42;7.07;;;5.70;;
45548;SDS011;31270;48.328;10.096;2023-06-26T12:52:10;6.22;;;5.63;;
45548;SDS011;31270;48.328;10.096;2023-06-26T12:54:39;6.90;;;6.18;;
45548;SDS011;31270;48.328;10.096;2023-06-26T12:57:06;8.88;;;5.72;;
45548;SDS011;31270;48.328;10.096;2023-06-26T12:59:32;6.72;;;6.13;;
45548;SDS011;31270;48.328;10.096;2023-06-26T13:01:58;6.10;;;5.50;;
45548;SDS011;31270;48.328;10.096;2023-06-26T13:04:24;6.43;;;5.63;;
45548;SDS011;31270;48.328;10.096;2023-06-26T13:06:56;6.25;;;5.65;;
45548;SDS011;31270;48.328;10.096;2023-06-26T13:09:23;9.00;;;5.75;;
45548;SDS011;31270;48.328;10.096;2023-06-26T13:11:50;7.53;;;6.25;;
45548;SDS011;31270;48.328;10.096;2023-06-26T13:14:16;6.80;;;6.20;;
45548;SDS011;31270;48.328;10.096;2023-06-26T13:16:41;13.55;;;6.25;;
45548;SDS011;31270;48.328;10.096;2023-06-26T13:19:07;6.80;;;6.03;;
45548;SDS011;31270;48.328;10.096;2023-06-26T13:21:33;6.70;;;6.10;;
45548;SDS011;31270;48.328;10.096;2023-06-26T13:23:59;6.28;;;5.72;;
45548;SDS011;31270;48.328;10.096;2023-06-26T13:26:25;6.40;;;5.80;;
45548;SDS011;31270;48.328;10.096;2023-06-26T13:28:51;7.05;;;6.35;;
45548;SDS011;31270;48.328;10.096;2023-06-26T13:31:17;7.10;;;6.40;;
45548;SDS011;31270;48.328;10.096;2023-06-26T13:33:43;9.70;;;6.32;;
45548;SDS011;31270;48.328;10.096;2023-06-26T13:36:10;8.10;;;6.82;;
45548;SDS011;31270;48.328;10.096;2023-06-26T13:38:36;13.23;;;11.82;;
45548;SDS011;31270;48.328;10.096;2023-06-26T13:41:02;8.60;;;7.18;;
45548;SDS011;31270;48.328;10.096;2023-06-26T13:43:28;16.13;;;8.40;;
45548;SDS011;31270;48.328;10.096;2023-06-26T13:45:54;9.63;;;8.73;;
45548;SDS011;31270;48.328;10.096;2023-06-26T13:48:21;7.70;;;6.82;;
45548;SDS011;31270;48.328;10.096;2023-06-26T13:50:47;11.10;;;9.05;;
45548;SDS011;31270;48.328;10.096;2023-06-26T13:53:13;10.90;;;9.80;;
45548;SDS011;31270;48.328;10.096;2023-06-26T13:55:40;7.60;;;6.82;;
45548;SDS011;31270;48.328;10.096;2023-06-26T13:58:06;8.48;;;6.63;;
45548;SDS011;31270;48.328;10.096;2023-06-26T14:00:32;7.57;;;6.88;;
45548;SDS011;31270;48.328;10.096;2023-06-26T14:03:02;7.60;;;6.85;;
45548;SDS011;31270;48.328;10.096;2023-06-26T14:05:35;8.25;;;6.75;;
45548;SDS011;31270;48.328;10.096;2023-06-26T14:08:07;9.30;;;6.78;;
45548;SDS011;31270;48.328;10.096;2023-06-26T14:10:33;7.75;;;7.00;;
45548;SDS011;31270;48.328;10.096;2023-06-26T14:13:02;8.25;;;7.45;;
45548;SDS011;31270;48.328;10.096;2023-06-26T14:15:28;7.40;;;6.70;;
45548;SDS011;31270;48.328;10.096;2023-06-26T14:17:54;7.50;;;6.72;;
45548;SDS011;31270;48.328;10.096;2023-06-26T14:20:21;7.55;;;6.85;;
45548;SDS011;31270;48.328;10.096;2023-06-26T14:22:47;7.15;;;6.45;;
45548;SDS011;31270;48.328;10.096;2023-06-26T14:25:13;7.63;;;6.57;;
45548;SDS011;31270;48.328;10.096;2023-06-26T14:27:39;7.88;;;6.97;;
45548;SDS011;31270;48.328;10.096;2023-06-26T14:30:05;7.65;;;6.95;;
45548;SDS011;31270;48.328;10.096;2023-06-26T14:32:32;7.97;;;7.18;;
45548;SDS011;31270;48.328;10.096;2023-06-26T14:34:58;8.00;;;6.80;;
45548;SDS011;31270;48.328;10.096;2023-06-26T14:37:25;8.50;;;7.43;;